Time;durP1;ratioP1;P1;durP2;ratioP2;P2;SDS_P1;SDS_P2;PMS_P1;PMS_P2;Temp;Humidity;BMP_temperature;BMP_pressure;BME280_temperature;BME280_humidity;BME280_pressure;Samples;Min_cycle;Max_cycle;Signal;HPM_P1;HPM_P2
2023/09/20 00:01:25;;;;;;;6.25;4.22;;;16.80;99.90;;;;;;4917238;28;93019;-32
2023/09/20 00:03:51;;;;;;;6.90;4.00;;;16.80;99.90;;;;;;4916850;28;94212;-33
2023/09/20 00:06:17;;;;;;;4.18;3.78;;;16.80;99.90;;;;;;4920563;28;94388;-33
2023/09/20 00:08:47;;;;;;;6.57;4.28;;;16.80;99.90;;;;;;4920636;28;94920;-35
2023/09/20 00:11:15;;;;;;;7.78;3.90;;;16.80;99.90;;;;;;4921072;28;93745;-34
2023/09/20 00:13:45;;;;;;;11.30;5.00;;;16.80;99.90;;;;;;4921796;28;91533;-33
2023/09/20 00:16:11;;;;;;;9.10;4.00;;;16.80;99.90;;;;;;4920716;28;94133;-32
2023/09/20 00:18:37;;;;;;;7.28;3.65;;;16.90;99.90;;;;;;4920041;28;94552;-35
2023/09/20 00:21:04;;;;;;;5.15;4.45;;;16.90;99.90;;;;;;4920683;28;94631;-31
2023/09/20 00:23:29;;;;;;;9.20;5.15;;;16.90;99.90;;;;;;4919907;28;94046;-32
2023/09/20 00:25:55;;;;;;;11.02;4.97;;;16.90;99.90;;;;;;4920640;28;95063;-33
2023/09/20 00:28:21;;;;;;;5.53;3.33;;;17.00;99.90;;;;;;4919982;28;95636;-36
2023/09/20 00:30:47;;;;;;;4.47;3.95;;;17.00;99.90;;;;;;4921296;28;94836;-33
2023/09/20 00:33:14;;;;;;;10.27;5.25;;;17.00;99.90;;;;;;4919400;28;94403;-31
2023/09/20 00:35:39;;;;;;;11.70;4.50;;;17.00;99.90;;;;;;4915940;28;94456;-30
2023/09/20 00:38:05;;;;;;;10.48;4.80;;;17.00;99.90;;;;;;4920383;28;95302;-33
2023/09/20 00:40:33;;;;;;;5.63;3.45;;;17.10;99.90;;;;;;4920559;28;93402;-32
2023/09/20 00:42:58;;;;;;;7.40;4.07;;;17.00;99.90;;;;;;4920148;28;94243;-34
2023/09/20 00:45:24;;;;;;;16.02;4.85;;;17.00;99.90;;;;;;4918458;28;94241;-32
2023/09/20 00:47:56;;;;;;;8.25;4.60;;;17.10;99.90;;;;;;4919631;28;95749;-35
2023/09/20 00:50:26;;;;;;;6.93;5.20;;;17.10;99.90;;;;;;4920490;28;92841;-32
2023/09/20 00:52:54;;;;;;;10.93;4.25;;;17.10;99.90;;;;;;4920041;28;94583;-34
2023/09/20 00:55:31;;;;;;;6.10;4.47;;;17.10;99.90;;;;;;4920060;28;94794;-35
2023/09/20 00:58:03;;;;;;;5.05;4.43;;;17.10;99.90;;;;;;4919955;28;95375;-32
2023/09/20 01:00:32;;;;;;;6.40;3.88;;;17.10;99.90;;;;;;4920814;28;92997;-33
2023/09/20 01:03:00;;;;;;;6.63;4.10;;;17.20;99.90;;;;;;4919731;28;91426;-31
2023/09/20 01:05:26;;;;;;;6.78;4.22;;;17.20;99.90;;;;;;4917913;28;96353;-33
2023/09/20 01:07:56;;;;;;;7.32;4.20;;;17.20;99.90;;;;;;4919256;28;94705;-36
2023/09/20 01:10:27;;;;;;;5.07;3.88;;;17.20;99.90;;;;;;4920075;28;94378;-33
2023/09/20 01:12:54;;;;;;;8.82;4.75;;;17.20;99.90;;;;;;4919058;28;93710;-35
2023/09/20 01:15:21;;;;;;;3.88;3.50;;;17.20;99.90;;;;;;4919669;28;94683;-36
2023/09/20 01:17:48;;;;;;;9.35;4.22;;;17.20;99.90;;;;;;4918112;28;94804;-33
2023/09/20 01:20:15;;;;;;;7.07;3.70;;;17.20;99.90;;;;;;4919050;28;92749;-31
2023/09/20 01:22:41;;;;;;;4.50;3.65;;;17.20;99.90;;;;;;4918370;28;93866;-35
2023/09/20 01:25:09;;;;;;;7.10;3.47;;;17.20;99.90;;;;;;4918896;28;94192;-36
2023/09/20 01:27:35;;;;;;;7.50;4.00;;;17.20;99.90;;;;;;4919202;28;95074;-34
2023/09/20 01:30:02;;;;;;;6.10;3.85;;;17.20;99.90;;;;;;4920199;28;94237;-33
2023/09/20 01:32:29;;;;;;;5.47;4.00;;;17.20;99.90;;;;;;4918490;28;92279;-36
2023/09/20 01:34:55;;;;;;;5.67;4.17;;;17.30;99.90;;;;;;4919562;28;96260;-34
2023/09/20 01:37:21;;;;;;;5.70;3.83;;;17.30;99.90;;;;;;4919143;28;95906;-32
2023/09/20 01:39:47;;;;;;;5.15;4.15;;;17.30;99.90;;;;;;4920257;28;94411;-32
2023/09/20 01:42:12;;;;;;;12.38;4.28;;;17.30;99.90;;;;;;4916879;28;92265;-35
2023/09/20 01:44:38;;;;;;;10.60;3.65;;;17.30;99.90;;;;;;4919894;28;94886;-32
2023/09/20 01:47:04;;;;;;;8.20;4.10;;;17.30;99.90;;;;;;4918763;28;94678;-33
2023/09/20 01:49:34;;;;;;;5.95;4.07;;;17.30;99.90;;;;;;4920049;28;94225;-33
2023/09/20 01:52:00;;;;;;;9.27;4.25;;;17.30;99.90;;;;;;4918862;28;92800;-35
2023/09/20 01:54:28;;;;;;;3.85;3.40;;;17.30;99.90;;;;;;4919633;28;94661;-35
2023/09/20 01:56:55;;;;;;;9.90;4.32;;;17.30;99.90;;;;;;4918819;28;94697;-33
2023/09/20 01:59:23;;;;;;;9.63;4.32;;;17.30;99.90;;;;;;4918829;28;96721;-33
2023/09/20 02:01:50;;;;;;;6.20;3.97;;;17.20;99.90;;;;;;4919793;28;94432;-34
2023/09/20 02:04:15;;;;;;;7.22;4.05;;;17.30;99.90;;;;;;4917215;28;96544;-36
2023/09/20 02:06:41;;;;;;;8.25;4.15;;;17.30;99.90;;;;;;4919734;28;94715;-32
2023/09/20 02:09:08;;;;;;;5.30;4.00;;;17.30;99.90;;;;;;4918810;28;94514;-32
2023/09/20 02:11:34;;;;;;;5.38;3.40;;;17.30;99.90;;;;;;4919235;28;93760;-34
2023/09/20 02:14:00;;;;;;;7.15;4.20;;;17.30;99.90;;;;;;4918187;28;93819;-33
2023/09/20 02:16:26;;;;;;;6.60;3.78;;;17.30;99.90;;;;;;4919249;28;94601;-32
2023/09/20 02:18:52;;;;;;;9.15;4.55;;;17.30;99.90;;;;;;4919188;28;94176;-32
2023/09/20 02:21:18;;;;;;;9.40;3.97;;;17.30;99.90;;;;;;4919191;28;94370;-33
2023/09/20 02:23:44;;;;;;;6.18;3.97;;;17.30;99.90;;;;;;4932489;28;95222;-34
2023/09/20 02:26:12;;;;;;;6.80;3.63;;;17.30;99.90;;;;;;4918653;28;95522;-31
2023/09/20 02:28:38;;;;;;;8.10;4.55;;;17.30;99.90;;;;;;4918442;28;92723;-30
2023/09/20 02:31:03;;;;;;;6.85;4.00;;;17.30;99.90;;;;;;4918646;28;94358;-32
2023/09/20 02:33:30;;;;;;;5.82;3.88;;;17.30;99.90;;;;;;4918589;28;93608;-32
2023/09/20 02:35:57;;;;;;;4.90;3.80;;;17.30;99.90;;;;;;4918300;28;94436;-32
2023/09/20 02:38:22;;;;;;;10.65;3.72;;;17.40;99.90;;;;;;4917643;28;94283;-32
2023/09/20 02:40:50;;;;;;;5.88;4.10;;;17.40;99.90;;;;;;4918539;28;92689;-31
2023/09/20 02:43:16;;;;;;;8.30;3.05;;;17.40;99.90;;;;;;4918006;28;94460;-32
2023/09/20 02:45:45;;;;;;;6.15;3.80;;;17.40;99.90;;;;;;4918276;28;93910;-33
2023/09/20 02:48:10;;;;;;;5.68;3.60;;;17.40;99.90;;;;;;4917277;28;95376;-33
2023/09/20 02:50:36;;;;;;;7.13;3.70;;;17.40;99.90;;;;;;4918877;28;94356;-34
2023/09/20 02:53:03;;;;;;;9.18;3.88;;;17.40;99.90;;;;;;4918834;28;94676;-31
2023/09/20 02:55:31;;;;;;;6.05;3.63;;;17.40;99.90;;;;;;4918181;28;92722;-33
2023/09/20 02:57:57;;;;;;;8.98;4.32;;;17.40;99.90;;;;;;4917794;28;92171;-34
2023/09/20 03:00:27;;;;;;;9.35;3.72;;;17.40;99.90;;;;;;4918869;28;93816;-33
2023/09/20 03:02:58;;;;;;;3.83;3.53;;;17.40;99.90;;;;;;4917202;28;94673;-31
2023/09/20 03:05:29;;;;;;;5.72;4.45;;;17.40;99.90;;;;;;4918887;28;93193;-32
2023/09/20 03:07:55;;;;;;;5.93;3.95;;;17.40;99.90;;;;;;4918436;28;93621;-32
2023/09/20 03:10:22;;;;;;;8.25;4.00;;;17.40;99.90;;;;;;4917716;28;93697;-32
2023/09/20 03:12:51;;;;;;;10.63;4.60;;;17.40;99.90;;;;;;4916048;28;95299;-33
2023/09/20 03:15:23;;;;;;;7.15;3.92;;;17.40;99.90;;;;;;4918095;28;94513;-33
2023/09/20 03:17:54;;;;;;;8.68;4.30;;;17.40;99.90;;;;;;4918400;28;94955;-35
2023/09/20 03:20:25;;;;;;;7.85;4.43;;;17.40;99.90;;;;;;4917415;28;93660;-35
2023/09/20 03:22:57;;;;;;;6.63;4.05;;;17.30;99.90;;;;;;4905863;28;94681;-30
2023/09/20 03:25:23;;;;;;;11.95;5.68;;;17.40;99.90;;;;;;4918151;28;93112;-32
2023/09/20 03:27:50;;;;;;;11.90;4.60;;;17.30;99.90;;;;;;4918122;28;92634;-33
2023/09/20 03:30:17;;;;;;;14.38;5.03;;;17.40;99.90;;;;;;4917955;28;93572;-31
2023/09/20 03:32:49;;;;;;;11.65;4.75;;;17.40;99.90;;;;;;4917536;28;94358;-33
2023/09/20 03:35:16;;;;;;;6.45;4.03;;;17.40;99.90;;;;;;4917478;28;95417;-33
2023/09/20 03:37:44;;;;;;;7.30;3.95;;;17.30;99.90;;;;;;4917632;28;93900;-32
2023/09/20 03:40:16;;;;;;;6.63;3.60;;;17.30;99.90;;;;;;4916108;28;92170;-34
2023/09/20 03:42:42;;;;;;;6.20;3.72;;;17.40;99.90;;;;;;4917655;28;94674;-33
2023/09/20 03:45:12;;;;;;;7.80;4.72;;;17.30;99.90;;;;;;4917529;28;93879;-33
2023/09/20 03:47:38;;;;;;;5.85;3.20;;;17.30;99.90;;;;;;4916361;28;92253;-33
2023/09/20 03:50:09;;;;;;;6.80;4.03;;;17.30;99.90;;;;;;4915944;28;93149;-34
2023/09/20 03:52:37;;;;;;;7.70;4.03;;;17.20;99.90;;;;;;4918034;28;94493;-31
2023/09/20 03:55:06;;;;;;;9.35;4.65;;;17.20;99.90;;;;;;4917392;28;94162;-33
2023/09/20 03:57:32;;;;;;;5.18;2.95;;;17.10;99.90;;;;;;4918163;28;93360;-34
2023/09/20 03:59:59;;;;;;;8.40;3.85;;;17.10;99.90;;;;;;4917514;28;93318;-36
2023/09/20 04:02:25;;;;;;;5.95;3.28;;;17.00;99.90;;;;;;4917489;28;95241;-33
2023/09/20 04:04:51;;;;;;;4.72;3.63;;;17.00;99.90;;;;;;4917034;28;94372;-35
2023/09/20 04:07:18;;;;;;;7.63;4.07;;;16.90;99.90;;;;;;4917766;28;94221;-33
2023/09/20 04:09:46;;;;;;;6.88;4.05;;;16.90;99.90;;;;;;4931579;28;94311;-35
2023/09/20 04:12:13;;;;;;;5.88;3.58;;;16.80;99.90;;;;;;4917375;28;93652;-33
2023/09/20 04:14:39;;;;;;;6.07;4.03;;;16.90;99.90;;;;;;4916996;28;95894;-33
2023/09/20 04:17:04;;;;;;;4.43;3.42;;;16.80;99.90;;;;;;4917924;28;92348;-32
2023/09/20 04:19:31;;;;;;;11.68;5.13;;;16.70;99.90;;;;;;4917308;28;93754;-31
2023/09/20 04:21:57;;;;;;;5.43;3.67;;;16.70;99.90;;;;;;4917155;28;95322;-32
2023/09/20 04:24:22;;;;;;;12.57;4.13;;;16.70;99.90;;;;;;4916806;28;93249;-33
2023/09/20 04:26:49;;;;;;;13.98;3.65;;;16.70;99.90;;;;;;4917029;28;95591;-33
2023/09/20 04:29:14;;;;;;;6.97;4.20;;;16.60;99.90;;;;;;4916239;28;93493;-33
2023/09/20 04:31:40;;;;;;;8.15;4.90;;;16.60;99.90;;;;;;4917124;28;95227;-33
2023/09/20 04:34:07;;;;;;;6.85;3.85;;;16.50;99.90;;;;;;4915632;28;94149;-33
2023/09/20 04:36:32;;;;;;;7.57;4.93;;;16.50;99.90;;;;;;4917813;28;93112;-33
2023/09/20 04:38:58;;;;;;;8.40;4.18;;;16.50;99.90;;;;;;4916883;28;94177;-31
2023/09/20 04:41:23;;;;;;;6.65;4.05;;;16.40;99.90;;;;;;4916944;28;94567;-32
2023/09/20 04:43:49;;;;;;;6.63;4.30;;;16.40;99.90;;;;;;4916537;28;94002;-33
2023/09/20 04:46:15;;;;;;;5.72;3.28;;;16.30;99.90;;;;;;4917417;28;94130;-32
2023/09/20 04:48:41;;;;;;;4.75;3.83;;;16.30;99.90;;;;;;4916375;28;93599;-36
2023/09/20 04:51:07;;;;;;;5.50;3.65;;;16.30;99.90;;;;;;4917460;28;95591;-35
2023/09/20 04:53:35;;;;;;;5.28;4.07;;;16.20;99.90;;;;;;4920098;28;94559;-33
2023/09/20 04:56:02;;;;;;;5.78;3.88;;;16.20;99.90;;;;;;4920044;28;92875;-35
2023/09/20 04:58:27;;;;;;;6.75;4.18;;;16.10;99.90;;;;;;4918905;28;92236;-32
2023/09/20 05:00:54;;;;;;;5.72;3.40;;;16.10;99.90;;;;;;4920208;28;94922;-33
2023/09/20 05:03:20;;;;;;;7.05;3.53;;;16.00;99.90;;;;;;4913186;28;95405;-34
2023/09/20 05:05:50;;;;;;;7.97;3.90;;;16.00;99.90;;;;;;4917894;28;93485;-32
2023/09/20 05:08:16;;;;;;;5.80;3.85;;;16.00;99.90;;;;;;4918082;28;92285;-34
2023/09/20 05:10:45;;;;;;;5.25;4.47;;;16.00;99.90;;;;;;4916800;28;95152;-36
2023/09/20 05:13:10;;;;;;;5.95;3.92;;;15.90;99.90;;;;;;4916236;28;94414;-33
2023/09/20 05:15:39;;;;;;;6.00;4.28;;;15.90;99.90;;;;;;4917460;28;93180;-33
2023/09/20 05:18:06;;;;;;;7.65;4.10;;;15.90;99.90;;;;;;4916787;28;93462;-36
2023/09/20 05:20:32;;;;;;;6.97;3.50;;;15.90;99.90;;;;;;4917569;28;94698;-32
2023/09/20 05:22:59;;;;;;;7.68;3.45;;;15.80;99.90;;;;;;4912557;28;95066;-34
2023/09/20 05:25:25;;;;;;;5.65;3.72;;;15.80;99.90;;;;;;4906265;28;93164;-35
2023/09/20 05:27:51;;;;;;;7.00;3.88;;;15.90;99.90;;;;;;4916611;28;94525;-33
2023/09/20 05:30:18;;;;;;;5.25;3.80;;;15.90;99.90;;;;;;4918847;28;93288;-34
2023/09/20 05:35:31;;;;;;;6.93;3.33;;;15.80;99.90;;;;;;4898649;28;93981;-31
2023/09/20 05:37:57;;;;;;;4.70;3.85;;;15.80;99.90;;;;;;4899776;28;94145;-34
2023/09/20 05:40:27;;;;;;;5.15;3.28;;;15.90;99.90;;;;;;4899922;28;94028;-32
2023/09/20 05:42:53;;;;;;;8.52;3.63;;;15.90;99.90;;;;;;4899679;28;93614;-34
2023/09/20 05:45:20;;;;;;;8.85;3.78;;;15.90;99.90;;;;;;4900786;28;92097;-35
2023/09/20 05:47:46;;;;;;;5.10;3.38;;;15.90;99.90;;;;;;4896394;28;92736;-36
2023/09/20 05:50:13;;;;;;;4.40;3.85;;;15.90;99.90;;;;;;4892684;28;96643;-33
2023/09/20 05:52:43;;;;;;;5.47;3.63;;;15.90;99.90;;;;;;4898799;28;94526;-35
2023/09/20 05:55:13;;;;;;;3.60;3.30;;;15.90;99.90;;;;;;4899291;28;94433;-35
2023/09/20 05:57:48;;;;;;;3.47;3.15;;;15.90;99.90;;;;;;4888531;28;91699;-34
2023/09/20 06:00:17;;;;;;;6.32;3.22;;;16.00;99.90;;;;;;4899431;28;95030;-33
2023/09/20 06:02:44;;;;;;;11.55;3.63;;;16.00;99.90;;;;;;4898614;28;94357;-32
2023/09/20 06:05:18;;;;;;;7.27;3.60;;;16.00;99.90;;;;;;4899806;28;94880;-32
2023/09/20 06:07:44;;;;;;;5.68;4.00;;;16.10;99.90;;;;;;4900161;28;94237;-34
2023/09/20 06:10:13;;;;;;;4.30;2.80;;;16.10;99.90;;;;;;4900195;28;94968;-32
2023/09/20 06:12:38;;;;;;;4.88;3.97;;;16.10;99.90;;;;;;4899463;28;94572;-32
2023/09/20 06:15:07;;;;;;;9.05;3.42;;;16.20;99.90;;;;;;4899704;28;92771;-36
2023/09/20 06:17:34;;;;;;;6.13;3.55;;;16.20;99.90;;;;;;4899564;28;93165;-31
2023/09/20 06:20:00;;;;;;;7.68;4.53;;;16.30;99.90;;;;;;4898855;28;93157;-32
2023/09/20 06:22:32;;;;;;;11.93;3.85;;;16.30;99.90;;;;;;4897089;28;94126;-32
2023/09/20 06:24:58;;;;;;;5.20;3.45;;;16.40;99.90;;;;;;4890707;28;94353;-34
2023/09/20 06:27:25;;;;;;;6.63;3.35;;;16.40;99.90;;;;;;4898910;28;94627;-33
2023/09/20 06:29:51;;;;;;;5.63;3.95;;;16.50;99.90;;;;;;4899069;28;96055;-36
2023/09/20 06:32:17;;;;;;;8.60;3.80;;;16.50;99.90;;;;;;4898253;28;96472;-35
2023/09/20 06:34:42;;;;;;;6.32;3.42;;;16.50;99.90;;;;;;4899572;28;92197;-33
2023/09/20 06:37:11;;;;;;;6.75;4.20;;;16.50;99.90;;;;;;4898345;28;94838;-31
2023/09/20 06:39:37;;;;;;;6.40;4.03;;;16.60;99.90;;;;;;4899005;28;95032;-35
2023/09/20 06:42:04;;;;;;;9.45;3.78;;;16.70;99.90;;;;;;4899076;28;94704;-33
2023/09/20 06:44:38;;;;;;;8.07;4.50;;;16.70;99.90;;;;;;4899178;28;94359;-34
2023/09/20 06:47:05;;;;;;;6.50;3.40;;;16.80;99.90;;;;;;4899208;28;92384;-35
2023/09/20 06:49:31;;;;;;;4.93;3.13;;;16.80;99.90;;;;;;4913860;28;93447;-32
2023/09/20 06:52:01;;;;;;;7.68;3.65;;;16.90;99.90;;;;;;4898738;28;94827;-34
2023/09/20 06:54:28;;;;;;;3.63;2.95;;;16.90;99.90;;;;;;4898941;28;93971;-33
2023/09/20 06:56:57;;;;;;;14.23;4.70;;;17.00;99.90;;;;;;4899435;28;94140;-32
2023/09/20 06:59:22;;;;;;;6.32;4.10;;;17.00;99.90;;;;;;4898827;28;95000;-33
2023/09/20 07:01:50;;;;;;;5.93;4.30;;;17.20;99.90;;;;;;4898250;28;95092;-32
2023/09/20 07:04:17;;;;;;;9.82;4.25;;;17.30;99.90;;;;;;4898566;28;93161;-31
2023/09/20 07:06:42;;;;;;;5.75;4.10;;;17.40;99.90;;;;;;4899383;28;93955;-33
2023/09/20 07:09:08;;;;;;;7.07;3.78;;;17.40;99.90;;;;;;4898368;28;94881;-31
2023/09/20 07:11:34;;;;;;;5.80;4.35;;;17.50;99.90;;;;;;4898482;28;94109;-36
2023/09/20 07:14:05;;;;;;;6.97;4.15;;;17.60;99.90;;;;;;4898589;28;94255;-34
2023/09/20 07:16:33;;;;;;;8.18;4.78;;;17.60;99.90;;;;;;4899103;28;93116;-34
2023/09/20 07:19:04;;;;;;;5.93;4.07;;;17.70;99.90;;;;;;4898258;28;95716;-34
2023/09/20 07:21:29;;;;;;;7.43;3.55;;;17.80;99.90;;;;;;4897700;28;95329;-34
2023/09/20 07:23:59;;;;;;;6.20;3.42;;;17.90;99.90;;;;;;4884871;28;94238;-33
2023/09/20 07:26:26;;;;;;;9.13;4.75;;;17.90;99.90;;;;;;4899233;28;92677;-33
2023/09/20 07:28:52;;;;;;;9.83;3.70;;;18.00;99.90;;;;;;4897894;28;96286;-35
2023/09/20 07:31:21;;;;;;;7.22;3.28;;;18.10;99.90;;;;;;4898706;28;94254;-32
2023/09/20 07:33:48;;;;;;;7.25;3.88;;;18.10;99.90;;;;;;4898642;28;94094;-32
2023/09/20 07:36:15;;;;;;;5.40;4.00;;;18.10;99.90;;;;;;4899171;28;91459;-31
2023/09/20 07:38:41;;;;;;;6.18;3.20;;;18.10;99.90;;;;;;4898439;28;94851;-34
2023/09/20 07:41:17;;;;;;;7.72;3.72;;;18.20;99.90;;;;;;4898286;28;94516;-33
2023/09/20 07:43:44;;;;;;;9.32;4.40;;;18.30;99.90;;;;;;4897839;28;94012;-36
2023/09/20 07:46:13;;;;;;;4.78;3.53;;;18.40;99.90;;;;;;4898632;28;94817;-32
2023/09/20 07:48:50;;;;;;;8.63;4.03;;;18.40;99.90;;;;;;4898035;28;96228;-31
2023/09/20 07:51:25;;;;;;;5.45;3.70;;;18.50;99.90;;;;;;4897748;28;94606;-35
2023/09/20 07:53:54;;;;;;;4.70;3.35;;;18.70;99.90;;;;;;4898961;28;93636;-32
2023/09/20 07:56:20;;;;;;;5.00;3.78;;;18.70;99.90;;;;;;4897745;28;94772;-34
2023/09/20 07:58:47;;;;;;;4.68;3.67;;;18.80;99.90;;;;;;4898660;28;94760;-34
2023/09/20 08:01:21;;;;;;;4.75;3.70;;;19.10;99.90;;;;;;4897694;28;94063;-34
2023/09/20 08:03:58;;;;;;;8.65;4.18;;;19.20;99.90;;;;;;4898690;28;94001;-34
2023/09/20 08:06:35;;;;;;;4.40;3.60;;;19.40;99.90;;;;;;4898072;28;92656;-32
2023/09/20 08:09:02;;;;;;;5.32;3.50;;;19.40;99.90;;;;;;4896697;28;95072;-35
2023/09/20 08:11:28;;;;;;;5.90;3.88;;;19.20;99.90;;;;;;4898091;28;95520;-33
2023/09/20 08:13:56;;;;;;;8.95;4.75;;;19.10;99.90;;;;;;4897285;28;93006;-36
2023/09/20 08:16:24;;;;;;;4.20;3.80;;;19.00;99.90;;;;;;4898638;28;93292;-32
2023/09/20 08:19:10;;;;;;;11.00;4.10;;;18.90;99.90;;;;;;4897078;28;94826;-34
2023/09/20 08:21:38;;;;;;;5.85;3.35;;;19.00;99.90;;;;;;4897861;28;94001;-32
2023/09/20 09:00:30;;;;;;;9.75;3.83;;;18.90;99.90;;;;;;4888715;28;93179;-31
2023/09/20 09:03:02;;;;;;;4.75;3.30;;;19.00;99.90;;;;;;4899024;28;95706;-33
2023/09/20 09:05:29;;;;;;;7.10;2.90;;;19.10;99.90;;;;;;4900085;28;94653;-32
2023/09/20 09:07:56;;;;;;;7.22;3.22;;;19.20;99.90;;;;;;4900911;28;94408;-31
2023/09/20 09:10:22;;;;;;;5.05;3.17;;;19.20;99.90;;;;;;4893514;28;93675;-32
2023/09/20 09:12:48;;;;;;;5.55;3.17;;;19.20;99.90;;;;;;4894065;28;93755;-35
2023/09/20 09:15:16;;;;;;;4.40;3.10;;;19.20;99.90;;;;;;4897706;28;94359;-31
2023/09/20 09:17:46;;;;;;;5.55;3.17;;;19.20;99.90;;;;;;4912487;28;93511;-35
2023/09/20 09:20:14;;;;;;;7.90;3.35;;;19.20;99.90;;;;;;4898387;28;93317;-32
2023/09/20 09:22:41;;;;;;;7.13;3.08;;;19.10;99.90;;;;;;4893599;28;94743;-32
2023/09/20 09:25:12;;;;;;;3.37;2.87;;;19.20;99.90;;;;;;4888957;28;94652;-34
2023/09/20 09:27:39;;;;;;;8.30;3.53;;;19.20;99.90;;;;;;4897491;28;95643;-35
2023/09/20 09:30:14;;;;;;;4.57;3.28;;;19.20;99.90;;;;;;4896101;28;92601;-36
2023/09/20 09:32:41;;;;;;;4.20;3.05;;;19.20;99.90;;;;;;4897192;28;94619;-31
2023/09/20 09:35:08;;;;;;;6.47;3.33;;;19.20;99.90;;;;;;4889287;28;93523;-32
2023/09/20 09:37:36;;;;;;;4.57;3.22;;;19.10;99.90;;;;;;4896653;28;94266;-34
2023/09/20 09:40:06;;;;;;;4.22;3.08;;;18.90;99.90;;;;;;4895655;28;94209;-30
2023/09/20 09:42:33;;;;;;;5.95;2.90;;;18.90;99.90;;;;;;4897448;28;95238;-33
2023/09/20 09:45:01;;;;;;;5.53;3.38;;;18.90;99.90;;;;;;4897643;28;94925;-33
2023/09/20 09:47:29;;;;;;;3.67;3.10;;;18.90;99.90;;;;;;4897262;28;93953;-35
2023/09/20 09:49:56;;;;;;;5.63;3.05;;;18.90;99.90;;;;;;4897256;28;93840;-31
2023/09/20 09:52:26;;;;;;;5.25;3.15;;;18.90;99.90;;;;;;4897711;28;95899;-31
2023/09/20 09:54:53;;;;;;;3.72;2.90;;;19.00;99.90;;;;;;4896779;28;95124;-33
2023/09/20 09:57:19;;;;;;;5.13;3.60;;;19.10;99.90;;;;;;4897374;28;93020;-31
2023/09/20 09:59:46;;;;;;;3.88;2.83;;;19.10;99.90;;;;;;4896904;28;93148;-35
2023/09/20 10:02:20;;;;;;;3.40;2.90;;;19.00;99.90;;;;;;4895883;28;96314;-34
2023/09/20 10:05:08;;;;;;;3.70;3.35;;;19.00;99.90;;;;;;4897243;28;94500;-33
2023/09/20 10:07:40;;;;;;;4.65;2.85;;;19.00;99.90;;;;;;4897273;28;93376;-34
2023/09/20 10:10:13;;;;;;;4.90;3.00;;;19.00;99.90;;;;;;4896861;28;93425;-34
2023/09/20 10:12:40;;;;;;;2.63;2.30;;;19.10;99.90;;;;;;4899672;28;94877;-34
2023/09/20 10:15:07;;;;;;;3.00;2.28;;;19.10;99.90;;;;;;4896439;28;94197;-35
2023/09/20 10:17:34;;;;;;;2.97;2.40;;;19.10;99.90;;;;;;4895994;28;93453;-35
2023/09/20 10:20:04;;;;;;;3.83;3.10;;;19.10;99.90;;;;;;4895806;28;93961;-31
2023/09/20 10:22:31;;;;;;;5.60;3.20;;;19.10;99.90;;;;;;4896699;28;95722;-31
2023/09/20 10:25:01;;;;;;;4.00;3.28;;;19.20;99.90;;;;;;4882441;28;93188;-36
2023/09/20 10:27:30;;;;;;;3.83;2.58;;;19.20;99.90;;;;;;4912188;28;93351;-35
2023/09/20 10:29:58;;;;;;;3.10;2.88;;;19.20;99.90;;;;;;4896781;28;94370;-33
2023/09/20 10:32:31;;;;;;;5.47;2.75;;;19.20;99.90;;;;;;4896483;28;94837;-34
2023/09/20 10:35:29;;;;;;;3.92;2.88;;;19.20;99.90;;;;;;4897205;28;93377;-35
2023/09/20 10:38:23;;;;;;;9.10;3.55;;;19.30;99.90;;;;;;4884904;28;93962;-33
2023/09/20 10:40:51;;;;;;;3.30;2.95;;;19.30;99.90;;;;;;4896327;28;95925;-32
2023/09/20 10:43:43;;;;;;;5.68;2.85;;;19.40;99.90;;;;;;4896912;28;94463;-33
2023/09/20 10:46:14;;;;;;;7.65;3.35;;;19.50;99.90;;;;;;4895539;28;94897;-33
2023/09/20 10:48:48;;;;;;;4.93;2.80;;;19.40;99.90;;;;;;4896376;28;93429;-33
2023/09/20 10:51:41;;;;;;;4.10;2.45;;;19.50;99.90;;;;;;4896807;28;92725;-31
2023/09/20 10:54:25;;;;;;;4.75;2.83;;;19.50;99.90;;;;;;4896046;28;94658;-34
2023/09/20 10:56:50;;;;;;;3.65;2.97;;;19.40;99.90;;;;;;4895872;28;94232;-35
2023/09/20 10:59:17;;;;;;;4.25;3.20;;;19.40;99.90;;;;;;4896811;28;93369;-34
2023/09/20 11:01:59;;;;;;;5.47;3.70;;;19.50;99.90;;;;;;4895894;28;93454;-32
2023/09/20 11:04:25;;;;;;;8.68;3.65;;;19.50;99.90;;;;;;4895459;28;95721;-32
2023/09/20 11:06:52;;;;;;;9.00;2.83;;;19.60;99.90;;;;;;4896225;28;94511;-35
2023/09/20 11:09:20;;;;;;;3.22;2.92;;;19.70;99.90;;;;;;4895002;28;93831;-33
2023/09/20 11:11:47;;;;;;;4.15;2.88;;;19.70;99.90;;;;;;4896729;28;92053;-35
2023/09/20 11:14:13;;;;;;;4.77;3.10;;;19.80;99.90;;;;;;4896011;28;95075;-34
2023/09/20 11:16:42;;;;;;;4.32;2.42;;;19.80;99.90;;;;;;4895377;28;95239;-34
2023/09/20 11:19:12;;;;;;;5.10;3.85;;;19.80;99.90;;;;;;4896463;28;94761;-33
2023/09/20 11:21:40;;;;;;;4.40;3.05;;;19.80;99.90;;;;;;4896687;28;94093;-35
2023/09/20 11:24:08;;;;;;;;;;;19.80;99.90;;;;;;4881497;28;95379;-32
2023/09/20 11:26:34;;;;;;;8.00;3.38;;;19.90;99.90;;;;;;4897472;28;93635;-30
2023/09/20 11:29:01;;;;;;;2.72;2.53;;;19.80;99.90;;;;;;4896327;28;93606;-31
2023/09/20 11:31:35;;;;;;;3.42;3.05;;;19.90;99.90;;;;;;4895121;28;93072;-32
2023/09/20 11:34:03;;;;;;;4.10;2.85;;;20.00;99.90;;;;;;4894792;28;95234;-33
2023/09/20 11:36:37;;;;;;;3.33;2.78;;;20.00;99.90;;;;;;4894894;28;93965;-35
2023/09/20 11:39:05;;;;;;;3.42;3.13;;;20.10;99.90;;;;;;4895468;28;93437;-33
2023/09/20 11:41:31;;;;;;;3.03;2.58;;;20.00;99.90;;;;;;4895714;28;93750;-36
2023/09/20 11:43:56;;;;;;;4.05;3.00;;;20.00;99.90;;;;;;4895835;28;97156;-33
2023/09/20 11:46:26;;;;;;;6.72;3.22;;;20.10;99.90;;;;;;4894761;28;94715;-33
2023/09/20 11:48:57;;;;;;;2.72;2.53;;;20.00;99.90;;;;;;4883902;28;94611;-34
2023/09/20 11:51:23;;;;;;;3.38;2.30;;;20.00;99.90;;;;;;4894864;28;93150;-34
2023/09/20 11:53:49;;;;;;;3.33;2.75;;;20.00;99.90;;;;;;4895416;28;94755;-34
2023/09/20 11:56:31;;;;;;;8.23;3.65;;;20.00;99.90;;;;;;4894219;28;94448;-34
2023/09/20 11:59:01;;;;;;;3.50;2.63;;;20.00;99.90;;;;;;4894852;28;93958;-35
2023/09/20 12:01:30;;;;;;;3.65;3.05;;;20.10;99.90;;;;;;4896488;28;95235;-31
2023/09/20 12:03:56;;;;;;;4.03;2.92;;;20.20;99.90;;;;;;4899437;28;93549;-35
2023/09/20 12:06:22;;;;;;;5.03;3.05;;;20.30;99.90;;;;;;4898612;28;93418;-36
2023/09/20 12:08:48;;;;;;;7.13;3.28;;;20.40;99.90;;;;;;4899006;28;94336;-34
2023/09/20 12:11:14;;;;;;;3.58;3.28;;;20.40;99.90;;;;;;4899026;28;93423;-32
2023/09/20 12:13:43;;;;;;;3.30;3.00;;;20.50;99.90;;;;;;4885484;28;94884;-32
2023/09/20 12:16:09;;;;;;;4.25;3.28;;;20.60;99.90;;;;;;4898472;28;94897;-35
2023/09/20 12:18:38;;;;;;;5.03;3.58;;;20.70;99.90;;;;;;4898530;28;93538;-34
2023/09/20 12:21:04;;;;;;;6.28;3.45;;;20.90;99.90;;;;;;4898803;28;93279;-32
2023/09/20 12:23:30;;;;;;;7.25;3.45;;;21.00;99.90;;;;;;4886897;28;94859;-34
2023/09/20 12:25:56;;;;;;;3.80;3.40;;;21.20;99.90;;;;;;4896933;28;94449;-32
2023/09/20 12:28:23;;;;;;;7.95;3.60;;;21.10;99.90;;;;;;4899388;28;92952;-34
2023/09/20 12:30:50;;;;;;;5.13;3.88;;;21.20;99.90;;;;;;4898793;28;94755;-32
2023/09/20 12:33:19;;;;;;;6.13;3.43;;;21.20;99.90;;;;;;4912517;28;94462;-32
2023/09/20 12:35:45;;;;;;;5.45;3.58;;;21.20;99.90;;;;;;4899291;28;95095;-31
2023/09/20 12:38:11;;;;;;;6.88;3.58;;;21.30;99.90;;;;;;4898055;28;94200;-33
2023/09/20 12:40:37;;;;;;;7.18;3.97;;;21.40;99.90;;;;;;4899138;28;91969;-34
2023/09/20 12:43:03;;;;;;;8.20;3.67;;;21.40;99.90;;;;;;4898430;28;94423;-35
2023/09/20 12:45:29;;;;;;;6.28;3.75;;;21.60;99.90;;;;;;4898036;28;95743;-33
2023/09/20 12:47:55;;;;;;;7.32;4.07;;;21.50;99.90;;;;;;4912844;28;94240;-35
2023/09/20 12:50:21;;;;;;;3.92;3.50;;;21.50;99.90;;;;;;4898233;28;93374;-35
2023/09/20 12:52:48;;;;;;;4.75;3.45;;;21.40;99.90;;;;;;4898135;28;94731;-36
2023/09/20 12:55:14;;;;;;;5.13;3.60;;;21.40;99.90;;;;;;4898335;28;94634;-34
2023/09/20 12:57:40;;;;;;;6.20;3.47;;;21.30;99.90;;;;;;4898389;28;92927;-35
2023/09/20 13:00:09;;;;;;;7.05;3.20;;;21.30;99.90;;;;;;4897705;28;92912;-31
2023/09/20 13:02:34;;;;;;;3.92;3.33;;;21.30;99.90;;;;;;4898542;28;93766;-34
2023/09/20 13:05:00;;;;;;;8.32;3.90;;;21.30;99.90;;;;;;4898540;28;94323;-33
2023/09/20 13:07:27;;;;;;;3.03;2.72;;;21.40;99.90;;;;;;4897111;28;94491;-33
2023/09/20 13:09:53;;;;;;;2.78;2.33;;;21.40;99.90;;;;;;4896828;28;94472;-34
2023/09/20 13:12:22;;;;;;;3.05;2.80;;;21.40;99.90;;;;;;4884944;28;96880;-35
2023/09/20 13:14:48;;;;;;;5.07;3.10;;;21.60;99.90;;;;;;4896039;28;95974;-31
2023/09/20 13:17:15;;;;;;;3.72;2.95;;;21.60;99.90;;;;;;4897417;28;93486;-33
2023/09/20 13:19:40;;;;;;;5.38;2.70;;;21.60;99.90;;;;;;4897584;28;93864;-33
2023/09/20 13:22:08;;;;;;;3.72;2.88;;;21.60;99.90;;;;;;4896808;28;94600;-33
2023/09/20 13:24:35;;;;;;;3.90;3.53;;;21.60;99.90;;;;;;4885283;28;94279;-32
2023/09/20 13:27:01;;;;;;;3.10;2.83;;;21.60;99.90;;;;;;4898198;28;93680;-35
2023/09/20 13:29:28;;;;;;;4.32;3.38;;;21.70;99.90;;;;;;4897609;28;92977;-32